Time;durP1;ratioP1;P1;durP2;ratioP2;P2;SDS_P1;SDS_P2;PMS_P1;PMS_P2;Temp;Humidity;BMP_temperature;BMP_pressure;BME280_temperature;BME280_humidity;BME280_pressure;Samples;Min_cycle;Max_cycle;Signal;HPM_P1;HPM_P2
2024/02/06 00:00:20;;;;;;;;;;;;;;;22.46;32.41;101924.56;4198877;28;19920;-61
2024/02/06 00:02:26;;;;;;;;;;;;;;;22.45;32.43;101927.34;4198856;28;20414;-61
2024/02/06 00:04:28;;;;;;;;;;;;;;;22.44;32.70;101925.63;4198541;28;19920;-61
2024/02/06 00:06:30;;;;;;;;;;;;;;;22.43;32.48;101919.41;4198902;28;19931;-61
2024/02/06 00:08:31;;;;;;;;;;;;;;;22.43;32.49;101922.09;4198575;28;20369;-60
2024/02/06 00:10:33;;;;;;;;;;;;;;;22.46;32.71;101921.03;4198686;28;19920;-62
2024/02/06 00:12:40;;;;;;;;;;;;;;;22.45;32.52;101925.50;4199166;28;19959;-62
2024/02/06 00:14:42;;;;;;;;;;;;;;;22.47;32.58;101917.38;4198647;28;19920;-62
2024/02/06 00:16:44;;;;;;;;;;;;;;;22.47;32.51;101922.75;4198808;28;19928;-61
2024/02/06 00:18:46;;;;;;;;;;;;;;;22.47;32.56;101918.22;4198333;28;20341;-61
2024/02/06 00:20:48;;;;;;;;;;;;;;;22.47;32.72;101915.56;4198694;28;20340;-61
2024/02/06 00:22:50;;;;;;;;;;;;;;;22.46;32.53;101924.56;4198615;28;19995;-61
2024/02/06 00:24:51;;;;;;;;;;;;;;;22.46;32.53;101918.34;4198552;28;19954;-61
2024/02/06 00:26:53;;;;;;;;;;;;;;;22.45;32.57;101913.94;4198464;28;19959;-61
2024/02/06 00:28:55;;;;;;;;;;;;;;;22.44;32.61;101909.53;4198482;28;19920;-60
2024/02/06 00:30:57;;;;;;;;;;;;;;;22.44;32.64;101901.50;4198109;28;20375;-61
2024/02/06 00:32:58;;;;;;;;;;;;;;;22.41;32.74;101907.06;4197992;28;20426;-61
2024/02/06 00:35:00;;;;;;;;;;;;;;;22.42;32.75;101908.78;4198365;28;19921;-61
2024/02/06 00:37:02;;;;;;;;;;;;;;;22.41;32.79;101905.25;4209613;28;19924;-61
2024/02/06 00:39:04;;;;;;;;;;;;;;;22.42;32.77;101901.59;4215045;28;19926;-61
2024/02/06 00:41:06;;;;;;;;;;;;;;;22.44;32.59;101902.38;4214964;28;19955;-61
2024/02/06 00:43:08;;;;;;;;;;;;;;;22.45;32.67;101904.06;4215150;28;20305;-60
2024/02/06 00:45:09;;;;;;;;;;;;;;;22.45;32.59;101900.53;4214953;28;20399;-61
2024/02/06 00:47:11;;;;;;;;;;;;;;;22.45;32.77;101900.53;4214589;28;19958;-61
2024/02/06 00:49:17;;;;;;;;;;;;;;;22.44;32.69;101897.00;4202765;28;19924;-60
2024/02/06 00:51:19;;;;;;;;;;;;;;;22.43;32.46;101891.72;4197837;28;19927;-60
2024/02/06 00:53:21;;;;;;;;;;;;;;;22.41;32.90;101881.13;4197873;28;20551;-61
2024/02/06 00:55:22;;;;;;;;;;;;;;;22.40;32.62;101883.91;4197740;28;19924;-61
2024/02/06 00:57:24;;;;;;;;;;;;;;;22.40;32.81;101878.56;4197808;28;19920;-61
2024/02/06 00:59:31;;;;;;;;;;;;;;;22.39;32.60;101874.16;4197856;28;20429;-61
2024/02/06 01:01:32;;;;;;;;;;;;;;;22.38;32.60;101875.94;4197961;28;20378;-61
2024/02/06 01:03:34;;;;;;;;;;;;;;;22.39;32.66;101877.66;4197662;28;19928;-62
2024/02/06 01:05:36;;;;;;;;;;;;;;;22.41;32.61;101877.59;4197665;28;19974;-61
2024/02/06 01:07:37;;;;;;;;;;;;;;;22.42;32.85;101879.28;4197638;28;19920;-62
2024/02/06 01:09:39;;;;;;;;;;;;;;;22.44;32.63;101882.72;4196566;28;20348;-61
2024/02/06 01:11:40;;;;;;;;;;;;;;;22.44;32.96;101886.28;4197641;28;19932;-62
2024/02/06 01:13:42;;;;;;;;;;;;;;;22.44;32.69;101867.53;4197748;28;20372;-62
2024/02/06 01:15:44;;;;;;;;;;;;;;;22.45;32.69;101876.41;4197433;28;19950;-62
2024/02/06 01:17:45;;;;;;;;;;;;;;;22.42;32.83;101880.16;4197332;28;19920;-62
2024/02/06 01:19:47;;;;;;;;;;;;;;;22.42;32.70;101877.47;4197818;28;20383;-62
2024/02/06 01:21:48;;;;;;;;;;;;;;;22.42;32.62;101871.25;4197426;28;19924;-61
2024/02/06 01:23:50;;;;;;;;;;;;;;;22.41;32.55;101874.91;4197471;28;19920;-61
2024/02/06 01:25:52;;;;;;;;;;;;;;;22.39;32.53;101864.28;4197643;28;20295;-62
2024/02/06 01:27:53;;;;;;;;;;;;;;;22.38;32.60;101857.19;4197490;28;19924;-61
2024/02/06 01:29:55;;;;;;;;;;;;;;;22.39;32.61;101856.22;4197554;28;19920;-62
2024/02/06 01:31:57;;;;;;;;;;;;;;;22.40;32.63;101855.28;4197172;28;19974;-62
2024/02/06 01:33:58;;;;;;;;;;;;;;;22.41;32.80;101857.00;4197181;28;19967;-61
2024/02/06 01:36:05;;;;;;;;;;;;;;;22.41;32.63;101848.94;4199870;28;20015;-62
2024/02/06 01:38:06;;;;;;;;;;;;;;;22.41;32.90;101848.94;4214257;28;20301;-61
2024/02/06 01:40:08;;;;;;;;;;;;;;;22.42;32.64;101842.63;4214023;28;19926;-62
2024/02/06 01:42:10;;;;;;;;;;;;;;;22.43;32.47;101843.47;4213235;28;19958;-62
2024/02/06 01:44:11;;;;;;;;;;;;;;;22.41;32.67;101843.59;4214176;28;19920;-62
2024/02/06 01:46:13;;;;;;;;;;;;;;;22.40;32.49;101833.81;4213673;28;19930;-61
2024/02/06 01:48:16;;;;;;;;;;;;;;;22.41;32.62;101837.38;4211202;28;19920;-62
2024/02/06 01:50:18;;;;;;;;;;;;;;;22.41;32.72;101840.06;4197333;28;20383;-62
2024/02/06 01:52:19;;;;;;;;;;;;;;;22.41;32.56;101830.19;4197007;28;19921;-62
2024/02/06 01:54:22;;;;;;;;;;;;;;;22.39;32.91;101829.44;4197350;28;19920;-61
2024/02/06 01:56:23;;;;;;;;;;;;;;;22.38;32.67;101830.38;4197351;28;20311;-62
2024/02/06 01:58:25;;;;;;;;;;;;;;;22.38;32.56;101834.88;4197148;28;19920;-62
2024/02/06 02:00:32;;;;;;;;;;;;;;;22.37;32.77;101836.69;4197136;28;19952;-61
2024/02/06 02:02:34;;;;;;;;;;;;;;;22.41;32.66;101840.06;4197124;28;20389;-62
2024/02/06 02:04:36;;;;;;;;;;;;;;;22.32;32.92;101823.59;4197291;28;19993;-61
2024/02/06 02:06:38;;;;;;;;;;;;;;;22.42;33.09;101828.34;4196038;28;19920;-61
2024/02/06 02:08:40;;;;;;;;;;;;;;;22.41;32.56;101826.66;4197137;28;19920;-60
2024/02/06 02:10:41;;;;;;;;;;;;;;;22.41;32.69;101832.03;4197123;28;19924;-60
2024/02/06 02:12:43;;;;;;;;;;;;;;;22.40;32.90;101831.16;4196959;28;19925;-60
2024/02/06 02:14:45;;;;;;;;;;;;;;;22.41;32.74;101826.66;4196703;28;19959;-60
2024/02/06 02:16:47;;;;;;;;;;;;;;;22.40;32.93;101824.94;4197017;28;19920;-63
2024/02/06 02:18:48;;;;;;;;;;;;;;;22.38;32.73;101821.47;4197098;28;19920;-60
2024/02/06 02:20:50;;;;;;;;;;;;;;;22.30;32.85;101811.28;4197225;28;20037;-61
2024/02/06 02:22:51;;;;;;;;;;;;;;;22.38;32.72;101824.16;4197095;28;19924;-61
2024/02/06 02:24:53;;;;;;;;;;;;;;;22.36;32.88;101818.03;4197172;28;20375;-60
2024/02/06 02:26:55;;;;;;;;;;;;;;;22.37;33.18;101814.38;4197108;28;19924;-60
2024/02/06 02:28:57;;;;;;;;;;;;;;;22.37;32.73;101807.22;4196488;28;20015;-61
2024/02/06 02:30:59;;;;;;;;;;;;;;;22.38;32.60;101800.03;4197197;28;19963;-61
2024/02/06 02:33:01;;;;;;;;;;;;;;;22.40;32.99;101806.19;4196817;28;19920;-62
2024/02/06 02:35:03;;;;;;;;;;;;;;;22.39;32.79;101797.25;4196928;28;19928;-63
2024/02/06 02:37:04;;;;;;;;;;;;;;;22.40;32.67;101788.25;4208872;28;19924;-62
2024/02/06 02:39:06;;;;;;;;;;;;;;;22.41;32.96;101805.22;4213742;28;20349;-62
2024/02/06 02:41:08;;;;;;;;;;;;;;;22.39;32.84;101799.94;4213531;28;19977;-61
2024/02/06 02:43:15;;;;;;;;;;;;;;;22.38;32.63;101794.66;4213703;28;19927;-60
2024/02/06 02:45:17;;;;;;;;;;;;;;;22.38;32.82;101786.63;4212228;28;19943;-61
2024/02/06 02:47:19;;;;;;;;;;;;;;;22.37;32.76;101785.78;4213533;28;19926;-61
2024/02/06 02:49:20;;;;;;;;;;;;;;;22.36;32.86;101788.53;4201734;28;19927;-62
2024/02/06 02:51:22;;;;;;;;;;;;;;;22.35;32.86;101790.38;4196864;28;19943;-62
2024/02/06 02:53:24;;;;;;;;;;;;;;;22.34;32.99;101788.66;4197094;28;19924;-62
2024/02/06 02:55:25;;;;;;;;;;;;;;;22.35;32.96;101785.00;4199965;28;19920;-62
2024/02/06 02:57:32;;;;;;;;;;;;;;;22.37;32.86;101783.09;4199781;28;19920;-62
2024/02/06 02:59:33;;;;;;;;;;;;;;;22.36;32.67;101778.69;4199438;28;19920;-61
2024/02/06 03:01:35;;;;;;;;;;;;;;;22.38;32.64;101774.09;4199643;28;20430;-62
2024/02/06 03:03:37;;;;;;;;;;;;;;;22.39;32.86;101769.63;4199707;28;19920;-62
2024/02/06 03:05:38;;;;;;;;;;;;;;;22.39;33.19;101764.25;4199869;28;19920;-62
2024/02/06 03:07:45;;;;;;;;;;;;;;;22.38;33.03;101755.34;4199738;28;19973;-62
2024/02/06 03:09:47;;;;;;;;;;;;;;;22.37;33.07;101755.41;4199650;28;19920;-62
2024/02/06 03:11:48;;;;;;;;;;;;;;;22.36;33.07;101749.22;4199665;28;19920;-62
2024/02/06 03:13:50;;;;;;;;;;;;;;;22.36;32.91;101753.69;4199286;28;20304;-62
2024/02/06 03:15:52;;;;;;;;;;;;;;;22.34;32.84;101751.13;4199388;28;19920;-62
2024/02/06 03:17:55;;;;;;;;;;;;;;;22.33;33.01;101744.06;4198288;28;20023;-62
2024/02/06 03:19:58;;;;;;;;;;;;;;;22.33;32.67;101738.69;4199527;28;19924;-61
2024/02/06 03:21:59;;;;;;;;;;;;;;;22.34;33.05;101745.78;4198337;28;20419;-61
2024/02/06 03:24:01;;;;;;;;;;;;;;;22.36;33.08;101745.66;4199273;28;19924;-62
2024/02/06 03:26:03;;;;;;;;;;;;;;;22.36;32.91;101746.53;4198216;28;19927;-61
2024/02/06 03:28:04;;;;;;;;;;;;;;;22.38;33.03;101735.69;4198936;28;19924;-61
2024/02/06 03:30:07;;;;;;;;;;;;;;;22.38;32.66;101733.91;4199506;28;19921;-62
2024/02/06 03:32:09;;;;;;;;;;;;;;;22.38;32.82;101733.03;4199362;28;19939;-62
2024/02/06 03:34:16;;;;;;;;;;;;;;;22.37;32.67;101737.53;4199159;28;19928;-62
2024/02/06 03:36:17;;;;;;;;;;;;;;;22.37;32.82;101733.97;4204432;28;19920;-62
2024/02/06 03:38:20;;;;;;;;;;;;;;;22.36;32.87;101737.63;4215913;28;19949;-62
2024/02/06 03:40:22;;;;;;;;;;;;;;;22.35;32.75;101728.72;4215945;28;19930;-61
2024/02/06 03:42:24;;;;;;;;;;;;;;;22.34;33.12;101738.56;4215770;28;19951;-62
2024/02/06 03:44:26;;;;;;;;;;;;;;;22.33;32.84;101736.88;4215924;28;19981;-61
2024/02/06 03:46:28;;;;;;;;;;;;;;;22.33;32.71;101733.34;4215982;28;20233;-61
2024/02/06 03:48:34;;;;;;;;;;;;;;;22.32;32.72;101729.81;4211115;28;19928;-61
2024/02/06 03:50:36;;;;;;;;;;;;;;;22.34;33.08;101732.38;4199175;28;19986;-61
2024/02/06 03:52:38;;;;;;;;;;;;;;;22.34;32.89;101725.19;4198839;28;20019;-62
2024/02/06 03:54:40;;;;;;;;;;;;;;;22.35;33.12;101723.38;4198965;28;19927;-61
2024/02/06 03:56:42;;;;;;;;;;;;;;;22.36;32.97;101711.69;4198708;28;19924;-62
2024/02/06 03:58:44;;;;;;;;;;;;;;;22.36;32.75;101718.84;4198831;28;20395;-61
2024/02/06 04:00:49;;;;;;;;;;;;;;;22.36;32.88;101714.38;4198987;28;19935;-62
2024/02/06 04:02:51;;;;;;;;;;;;;;;22.37;32.80;101709.84;4198890;28;20278;-61
2024/02/06 04:04:53;;;;;;;;;;;;;;;22.37;32.98;101704.50;4198154;28;19964;-61
2024/02/06 04:06:55;;;;;;;;;;;;;;;22.34;32.69;101703.72;4197442;28;19931;-61
2024/02/06 04:08:56;;;;;;;;;;;;;;;22.35;32.90;101707.28;4198848;28;20395;-60
2024/02/06 04:10:58;;;;;;;;;;;;;;;22.34;33.23;101705.56;4197276;28;20018;-62
2024/02/06 04:13:00;;;;;;;;;;;;;;;22.34;33.00;101705.56;4198709;28;20458;-60
2024/02/06 04:15:02;;;;;;;;;;;;;;;22.33;32.96;101704.72;4198682;28;19963;-60
2024/02/06 04:17:04;;;;;;;;;;;;;;;22.33;32.90;101703.84;4198720;28;19932;-62
2024/02/06 04:19:05;;;;;;;;;;;;;;;22.33;32.98;101710.09;4198592;28;20011;-61
2024/02/06 04:21:08;;;;;;;;;;;;;;;22.36;32.76;101708.13;4198417;28;19963;-61
2024/02/06 04:23:10;;;;;;;;;;;;;;;22.35;32.88;101709.97;4197037;28;19920;-61
2024/02/06 04:25:11;;;;;;;;;;;;;;;22.34;33.13;101703.72;4198039;28;19948;-61
2024/02/06 04:27:13;;;;;;;;;;;;;;;22.37;33.08;101701.81;4198634;28;19920;-62
2024/02/06 04:29:14;;;;;;;;;;;;;;;22.36;32.98;101694.72;4198329;28;19986;-62
2024/02/06 04:31:16;;;;;;;;;;;;;;;22.35;32.77;101691.22;4198486;28;20268;-61
2024/02/06 04:33:18;;;;;;;;;;;;;;;22.33;32.87;101699.38;4198483;28;20380;-62
2024/02/06 04:35:20;;;;;;;;;;;;;;;22.33;32.96;101699.38;4198211;28;19926;-61
2024/02/06 04:37:22;;;;;;;;;;;;;;;22.33;33.07;101695.81;4212445;28;20284;-61
2024/02/06 04:39:24;;;;;;;;;;;;;;;22.33;32.94;101690.44;4214753;28;19985;-61
2024/02/06 04:41:26;;;;;;;;;;;;;;;22.31;33.16;101700.44;4214798;28;19921;-61
2024/02/06 04:43:27;;;;;;;;;;;;;;;22.30;33.07;101694.22;4215170;28;19989;-60
2024/02/06 04:45:31;;;;;;;;;;;;;;;22.32;33.19;101697.66;4215029;28;20356;-60
2024/02/06 04:47:33;;;;;;;;;;;;;;;22.33;32.86;101698.50;4214976;28;20014;-60
2024/02/06 04:49:34;;;;;;;;;;;;;;;22.34;32.99;101700.22;4200956;28;20406;-61
2024/02/06 04:51:39;;;;;;;;;;;;;;;22.35;32.88;101693.88;4198121;28;19928;-61
2024/02/06 04:53:41;;;;;;;;;;;;;;;22.34;32.96;101701.06;4198132;28;20417;-61
2024/02/06 04:55:42;;;;;;;;;;;;;;;22.36;33.01;101697.41;4197632;28;19927;-61
2024/02/06 04:57:44;;;;;;;;;;;;;;;22.36;32.86;101689.38;4198084;28;20318;-60
2024/02/06 04:59:45;;;;;;;;;;;;;;;22.35;32.99;101696.56;4198122;28;19932;-61
2024/02/06 05:01:47;;;;;;;;;;;;;;;22.34;32.88;101690.34;4198084;28;19955;-60
2024/02/06 05:03:49;;;;;;;;;;;;;;;22.34;33.04;101689.50;4197959;28;19920;-61
2024/02/06 05:05:50;;;;;;;;;;;;;;;22.32;33.02;101692.28;4197952;28;19928;-61
2024/02/06 05:07:52;;;;;;;;;;;;;;;22.32;32.94;101681.56;4198030;28;19943;-61
2024/02/06 05:09:54;;;;;;;;;;;;;;;22.32;33.26;101676.22;4197503;28;19920;-61
2024/02/06 05:11:57;;;;;;;;;;;;;;;22.32;33.03;101684.25;4197804;28;20007;-61
2024/02/06 05:13:58;;;;;;;;;;;;;;;22.33;33.07;101679.72;4197807;28;19950;-61
2024/02/06 05:16:00;;;;;;;;;;;;;;;22.34;32.94;101674.25;4197975;28;19920;-61
2024/02/06 05:18:03;;;;;;;;;;;;;;;22.34;33.20;101676.94;4197785;28;19959;-61
2024/02/06 05:20:05;;;;;;;;;;;;;;;22.36;32.93;101668.81;4197667;28;19954;-61
2024/02/06 05:22:07;;;;;;;;;;;;;;;22.37;33.06;101669.66;4197778;28;19955;-61
2024/02/06 05:24:09;;;;;;;;;;;;;;;22.36;32.86;101666.13;4197122;28;20459;-61
2024/02/06 05:26:10;;;;;;;;;;;;;;;22.35;32.93;101669.78;4197562;28;19920;-61
2024/02/06 05:28:12;;;;;;;;;;;;;;;22.37;33.05;101672.34;4196411;28;19920;-61
2024/02/06 05:30:13;;;;;;;;;;;;;;;22.35;33.19;101669.78;4197529;28;20007;-61
2024/02/06 05:32:15;;;;;;;;;;;;;;;22.34;33.20;101676.09;4197398;28;19974;-61
2024/02/06 05:34:17;;;;;;;;;;;;;;;22.34;33.06;101662.69;4197762;28;19921;-61
2024/02/06 05:36:19;;;;;;;;;;;;;;;22.33;33.14;101661.84;4202825;28;20375;-61
2024/02/06 05:38:20;;;;;;;;;;;;;;;22.32;33.09;101673.53;4214016;28;19926;-61
2024/02/06 05:40:22;;;;;;;;;;;;;;;22.34;33.09;101670.72;4214317;28;20016;-60
2024/02/06 05:42:24;;;;;;;;;;;;;;;22.36;33.14;101662.56;4214244;28;19951;-60
2024/02/06 05:44:25;;;;;;;;;;;;;;;22.35;33.07;101653.69;4214116;28;19924;-60
2024/02/06 05:46:27;;;;;;;;;;;;;;;22.36;33.04;101650.06;4214031;28;20018;-60
2024/02/06 05:48:29;;;;;;;;;;;;;;;22.38;32.99;101650.81;4209383;28;20011;-60
2024/02/06 05:50:31;;;;;;;;;;;;;;;22.38;33.17;101649.94;4197453;28;20378;-61
2024/02/06 05:52:32;;;;;;;;;;;;;;;22.38;33.15;101650.81;4180531;28;19921;-60
2024/02/06 05:54:34;;;;;;;;;;;;;;;22.37;33.07;101646.41;4180781;28;19927;-60
2024/02/06 05:56:36;;;;;;;;;;;;;;;22.37;32.93;101648.22;4180752;28;19928;-59
2024/02/06 05:58:41;;;;;;;;;;;;;;;22.36;33.28;101636.66;4180772;28;19943;-62
2024/02/06 06:00:43;;;;;;;;;;;;;;;22.36;33.02;101643.81;4180853;28;20035;-59
2024/02/06 06:02:44;;;;;;;;;;;;;;;22.33;33.00;101637.72;4180756;28;19921;-61
2024/02/06 06:04:46;;;;;;;;;;;;;;;22.34;33.26;101638.56;4180742;28;19929;-61
2024/02/06 06:06:48;;;;;;;;;;;;;;;22.33;33.44;101626.13;4180138;28;19953;-61
2024/02/06 06:08:49;;;;;;;;;;;;;;;22.34;33.25;101635.88;4180773;28;19920;-61
2024/02/06 06:10:51;;;;;;;;;;;;;;;22.35;33.04;101637.59;4180791;28;19928;-63
2024/02/06 06:12:53;;;;;;;;;;;;;;;22.36;33.20;101641.13;4180717;28;19928;-61
2024/02/06 06:14:54;;;;;;;;;;;;;;;22.36;33.05;101646.50;4180596;28;19982;-60
2024/02/06 06:16:56;;;;;;;;;;;;;;;22.36;33.10;101643.81;4180419;28;20437;-61
2024/02/06 06:18:57;;;;;;;;;;;;;;;22.36;33.22;101642.00;4180895;28;19959;-60
2024/02/06 06:20:59;;;;;;;;;;;;;;;22.36;33.24;101642.00;4180352;28;19964;-60
2024/02/06 06:23:01;;;;;;;;;;;;;;;22.36;33.10;101641.13;4180474;28;19920;-61
2024/02/06 06:25:03;;;;;;;;;;;;;;;22.28;33.03;101636.31;4180473;28;19964;-62
2024/02/06 06:27:05;;;;;;;;;;;;;;;22.34;33.38;101647.44;4180498;28;20342;-60
2024/02/06 06:29:08;;;;;;;;;;;;;;;22.36;33.07;101649.16;4182250;28;20256;-60
2024/02/06 06:31:10;;;;;;;;;;;;;;;22.33;33.30;101648.44;4183685;28;19975;-60
2024/02/06 06:33:11;;;;;;;;;;;;;;;22.33;33.36;101628.81;4183887;28;19936;-61
2024/02/06 06:35:13;;;;;;;;;;;;;;;22.33;33.29;101645.78;4183621;28;19924;-61
2024/02/06 06:37:18;;;;;;;;;;;;;;;22.34;32.99;101644.78;4209878;28;19962;-61
2024/02/06 06:39:20;;;;;;;;;;;;;;;22.36;33.14;101627.72;4216960;28;19935;-61
2024/02/06 06:41:24;;;;;;;;;;;;;;;22.36;33.11;101633.09;4216697;28;19958;-62
2024/02/06 06:43:26;;;;;;;;;;;;;;;22.37;33.12;101624.97;4217049;28;19926;-61
2024/02/06 06:45:31;;;;;;;;;;;;;;;22.38;33.30;101629.38;4217052;28;19927;-61
2024/02/06 06:47:33;;;;;;;;;;;;;;;22.37;33.13;101633.00;4216696;28;19927;-61
2024/02/06 06:49:34;;;;;;;;;;;;;;;22.37;33.12;101633.00;4202868;28;19920;-61
2024/02/06 06:51:36;;;;;;;;;;;;;;;22.37;33.11;101634.81;4199832;28;19931;-61
2024/02/06 06:53:38;;;;;;;;;;;;;;;22.36;33.10;101633.97;4199899;28;19921;-61
2024/02/06 06:55:40;;;;;;;;;;;;;;;22.34;32.95;101633.22;4200023;28;19924;-61
2024/02/06 06:57:42;;;;;;;;;;;;;;;22.33;33.12;101640.41;4199850;28;20354;-62
2024/02/06 06:59:45;;;;;;;;;;;;;;;22.33;33.09;101629.69;4199839;28;20302;-61
2024/02/06 07:01:46;;;;;;;;;;;;;;;22.33;33.20;101629.69;4199886;28;19931;-61
2024/02/06 07:03:50;;;;;;;;;;;;;;;22.34;33.50;101623.34;4199859;28;19927;-61
2024/02/06 07:05:52;;;;;;;;;;;;;;;22.36;33.14;101625.94;4199570;28;19920;-61
2024/02/06 07:07:54;;;;;;;;;;;;;;;22.36;33.17;101628.59;4199792;28;19927;-61
2024/02/06 07:09:56;;;;;;;;;;;;;;;22.38;33.26;101639.22;4199607;28;19920;-61
2024/02/06 07:11:58;;;;;;;;;;;;;;;22.39;33.34;101633.75;4199665;28;19920;-61
2024/02/06 07:13:59;;;;;;;;;;;;;;;22.39;33.10;101638.28;4199943;28;20302;-61
2024/02/06 07:16:01;;;;;;;;;;;;;;;22.38;33.26;101642.75;4199828;28;20294;-60
2024/02/06 07:18:03;;;;;;;;;;;;;;;22.38;33.28;101644.56;4199514;28;20023;-61
2024/02/06 07:20:05;;;;;;;;;;;;;;;22.38;33.11;101642.75;4199072;28;19927;-61
2024/02/06 07:22:07;;;;;;;;;;;;;;;22.37;33.26;101657.13;4199574;28;19973;-61
2024/02/06 07:24:08;;;;;;;;;;;;;;;22.36;33.13;101652.72;4199569;28;20443;-61
2024/02/06 07:26:10;;;;;;;;;;;;;;;22.35;33.42;101661.72;4199544;28;19966;-61
2024/02/06 07:28:12;;;;;;;;;;;;;;;22.35;33.00;101656.38;4199661;28;19921;-61
2024/02/06 07:30:14;;;;;;;;;;;;;;;22.36;33.11;101659.91;4199523;28;19920;-61
2024/02/06 07:32:31;;;;;;;;;;;;;;;22.36;33.20;101658.09;4199250;28;19928;-61
2024/02/06 07:34:32;;;;;;;;;;;;;;;22.37;32.98;101665.16;4199156;28;19924;-61
2024/02/06 07:36:34;;;;;;;;;;;;;;;22.38;33.24;101664.22;4205794;28;19920;-61
2024/02/06 07:38:36;;;;;;;;;;;;;;;22.39;33.34;101671.28;4216076;28;19923;-62
2024/02/06 07:40:37;;;;;;;;;;;;;;;22.40;33.17;101666.81;4214793;28;19935;-60
2024/02/06 07:42:39;;;;;;;;;;;;;;;22.39;32.98;101670.44;4215860;28;19923;-61
2024/02/06 07:44:40;;;;;;;;;;;;;;;22.39;33.16;101673.97;4216157;28;20346;-61
2024/02/06 07:46:42;;;;;;;;;;;;;;;22.38;33.37;101666.88;4216045;28;19927;-61
2024/02/06 07:48:44;;;;;;;;;;;;;;;22.38;33.17;101663.34;4208904;28;19927;-61
2024/02/06 07:50:47;;;;;;;;;;;;;;;22.38;33.16;101674.06;4197874;28;19956;-62
2024/02/06 07:52:51;;;;;;;;;;;;;;;22.37;33.16;101672.34;4199100;28;19920;-62
2024/02/06 07:54:53;;;;;;;;;;;;;;;22.37;33.20;101670.53;4199257;28;19920;-62
2024/02/06 07:56:54;;;;;;;;;;;;;;;22.38;33.22;101676.72;4198797;28;20011;-61
2024/02/06 07:58:58;;;;;;;;;;;;;;;22.38;33.37;101674.94;4199059;28;19924;-63
2024/02/06 08:00:59;;;;;;;;;;;;;;;22.39;33.33;101682.00;4198613;28;19920;-61
2024/02/06 08:03:01;;;;;;;;;;;;;;;22.41;33.17;101677.41;4198738;28;19925;-61
2024/02/06 08:05:04;;;;;;;;;;;;;;;22.41;33.23;101676.56;4198875;28;19920;-62
2024/02/06 08:07:06;;;;;;;;;;;;;;;22.42;33.36;101675.56;4198711;28;19955;-61
2024/02/06 08:09:08;;;;;;;;;;;;;;;22.40;33.16;101674.84;4198965;28;19924;-60
2024/02/06 08:11:10;;;;;;;;;;;;;;;22.40;33.40;101674.84;4198866;28;19920;-63
2024/02/06 08:13:12;;;;;;;;;;;;;;;22.40;33.31;101678.38;4198703;28;19948;-60
2024/02/06 08:15:13;;;;;;;;;;;;;;;22.39;33.24;101684.69;4197569;28;20007;-61
2024/02/06 08:17:17;;;;;;;;;;;;;;;22.37;33.35;101678.56;4198271;28;19948;-60
2024/02/06 08:19:19;;;;;;;;;;;;;;;22.38;33.38;101684.78;4198932;28;20386;-60
2024/02/06 08:21:21;;;;;;;;;;;;;;;22.37;33.32;101673.22;4198602;28;19920;-61
2024/02/06 08:23:23;;;;;;;;;;;;;;;22.37;33.11;101667.84;4198676;28;19921;-60
2024/02/06 08:25:25;;;;;;;;;;;;;;;22.39;33.24;101678.47;4198461;28;19920;-60
2024/02/06 08:27:27;;;;;;;;;;;;;;;22.39;33.12;101678.47;4198436;28;20281;-61
2024/02/06 08:29:29;;;;;;;;;;;;;;;22.40;33.28;101674.84;4198694;28;19950;-61
2024/02/06 08:31:31;;;;;;;;;;;;;;;22.40;33.10;101681.06;4198311;28;19986;-61
2024/02/06 08:33:32;;;;;;;;;;;;;;;22.41;33.14;101672.03;4198457;28;19971;-61
2024/02/06 08:35:34;;;;;;;;;;;;;;;22.42;33.21;101678.25;4198284;28;19920;-61
2024/02/06 08:37:36;;;;;;;;;;;;;;;22.41;33.20;101672.03;4214651;28;19961;-60
2024/02/06 08:39:38;;;;;;;;;;;;;;;22.40;33.30;101677.53;4214999;28;19924;-61
2024/02/06 08:41:40;;;;;;;;;;;;;;;22.40;32.97;101670.31;4215062;28;19928;-60
2024/02/06 08:43:42;;;;;;;;;;;;;;;22.39;33.54;101671.28;4213828;28;20334;-61
2024/02/06 08:45:56;;;;;;;;;;;;;;;22.39;33.09;101670.44;4214769;28;19946;-61
2024/02/06 08:47:58;;;;;;;;;;;;;;;22.39;33.22;101673.13;4214599;28;20353;-61
2024/02/06 08:50:00;;;;;;;;;;;;;;;22.39;33.03;101659.72;4197998;28;19920;-61
2024/02/06 08:52:04;;;;;;;;;;;;;;;22.41;33.12;101665.84;4197953;28;19920;-60
2024/02/06 08:54:05;;;;;;;;;;;;;;;22.40;33.39;101670.31;4198234;28;19920;-61
2024/02/06 08:56:07;;;;;;;;;;;;;;;22.41;32.98;101673.88;4197813;28;19925;-61
2024/02/06 08:58:10;;;;;;;;;;;;;;;22.43;33.07;101669.25;4198053;28;19954;-60
2024/02/06 09:00:12;;;;;;;;;;;;;;;22.44;32.86;101674.53;4197926;28;19921;-61
2024/02/06 09:02:13;;;;;;;;;;;;;;;22.46;33.06;101674.41;4197733;28;19942;-61
2024/02/06 09:04:18;;;;;;;;;;;;;;;22.44;33.25;101677.22;4198141;28;19960;-61
2024/02/06 09:06:21;;;;;;;;;;;;;;;22.43;33.36;101670.13;4198009;28;19921;-61
2024/02/06 09:08:23;;;;;;;;;;;;;;;22.44;33.04;101682.56;4197775;28;19928;-61
2024/02/06 09:10:25;;;;;;;;;;;;;;;22.44;33.04;101685.25;4197983;28;20307;-62
2024/02/06 09:12:28;;;;;;;;;;;;;;;22.43;32.98;101669.25;4197904;28;19948;-61
2024/02/06 09:14:29;;;;;;;;;;;;;;;22.42;32.99;101679.13;4197916;28;20101;-61
2024/02/06 09:16:35;;;;;;;;;;;;;;;22.41;33.05;101672.03;4197324;28;19927;-60
2024/02/06 09:18:36;;;;;;;;;;;;;;;22.41;32.90;101664.00;4197817;28;19920;-61
2024/02/06 09:20:39;;;;;;;;;;;;;;;22.43;32.89;101669.25;4197812;28;20016;-62
2024/02/06 09:22:40;;;;;;;;;;;;;;;22.44;33.05;101668.28;4197959;28;19927;-61
2024/02/06 09:24:42;;;;;;;;;;;;;;;22.46;33.02;101669.03;4197630;28;19974;-60
2024/02/06 09:26:44;;;;;;;;;;;;;;;22.46;33.04;101669.88;4197763;28;19926;-62
2024/02/06 09:28:45;;;;;;;;;;;;;;;22.46;33.06;101669.88;4197746;28;20402;-61
2024/02/06 09:30:47;;;;;;;;;;;;;;;22.46;32.89;101666.38;4197419;28;19921;-62
2024/02/06 09:32:49;;;;;;;;;;;;;;;22.47;33.14;101662.72;4197536;28;19931;-61
2024/02/06 09:34:53;;;;;;;;;;;;;;;22.47;32.97;101657.38;4197774;28;20020;-61
2024/02/06 09:37:00;;;;;;;;;;;;;;;22.46;33.43;101653.81;4208386;28;19919;-61
2024/02/06 09:39:02;;;;;;;;;;;;;;;22.44;33.05;101650.41;4214410;28;19942;-61
2024/02/06 09:41:05;;;;;;;;;;;;;;;22.45;33.14;101653.94;4214041;28;19977;-60
2024/02/06 09:43:10;;;;;;;;;;;;;;;22.44;33.37;101653.09;4214335;28;20007;-61
2024/02/06 09:45:12;;;;;;;;;;;;;;;22.45;33.25;101653.94;4214023;28;20397;-61
2024/02/06 09:47:13;;;;;;;;;;;;;;;22.47;33.09;101660.03;4214133;28;19963;-60
2024/02/06 09:49:17;;;;;;;;;;;;;;;22.47;33.05;101655.53;4202591;28;20387;-61
2024/02/06 09:51:22;;;;;;;;;;;;;;;22.50;33.01;101662.50;4197403;28;19924;-61
2024/02/06 09:53:25;;;;;;;;;;;;;;;22.51;32.99;101660.69;4197596;28;19921;-62
2024/02/06 09:55:26;;;;;;;;;;;;;;;22.52;33.05;101659.69;4197521;28;19927;-62
2024/02/06 09:57:29;;;;;;;;;;;;;;;22.51;33.10;101656.16;4197418;28;19927;-61
2024/02/06 09:59:31;;;;;;;;;;;;;;;22.53;33.00;101658.72;4197097;28;19928;-62
2024/02/06 10:01:35;;;;;;;;;;;;;;;22.52;32.95;101654.31;4197233;28;19966;-62
2024/02/06 10:03:39;;;;;;;;;;;;;;;22.52;32.99;101655.19;4196522;28;19924;-61
2024/02/06 10:05:41;;;;;;;;;;;;;;;22.52;33.10;101654.31;4197202;28;19932;-61
2024/02/06 10:07:48;;;;;;;;;;;;;;;22.51;33.02;101652.63;4197252;28;19928;-61
2024/02/06 10:09:51;;;;;;;;;;;;;;;22.51;33.07;101652.63;4197276;28;19924;-61
2024/02/06 10:11:54;;;;;;;;;;;;;;;22.51;32.83;101644.59;4197092;28;20014;-61
2024/02/06 10:13:55;;;;;;;;;;;;;;;22.52;32.93;101651.66;4197040;28;19921;-61
2024/02/06 10:15:57;;;;;;;;;;;;;;;22.52;32.94;101640.91;4197332;28;19930;-61
2024/02/06 10:17:59;;;;;;;;;;;;;;;22.53;32.95;101639.97;4197196;28;19970;-61
2024/02/06 10:20:05;;;;;;;;;;;;;;;22.54;33.10;101637.19;4197349;28;20011;-61
2024/02/06 10:22:09;;;;;;;;;;;;;;;22.57;32.78;101638.78;4197256;28;19920;-61
2024/02/06 10:24:10;;;;;;;;;;;;;;;22.58;33.28;101633.31;4197089;28;19920;-62
2024/02/06 10:26:16;;;;;;;;;;;;;;;22.58;32.95;101632.47;4197156;28;19921;-61